Time;durP1;ratioP1;P1;durP2;ratioP2;P2;SDS_P1;SDS_P2;PMS_P1;PMS_P2;Temp;Humidity;BMP_temperature;BMP_pressure;BME280_temperature;BME280_humidity;BME280_pressure;Samples;Min_cycle;Max_cycle;Signal;HPM_P1;HPM_P2
2023/09/28 00:45:03;;;;;;;;;;;;;;;;;;;;;
2023/09/28 01:24:55;;;;;;;5.65;4.70;;;;;;;;;;6106166;23;20242;-88
2023/09/28 04:43:54;;;;;;;5.15;4.60;;;15.80;99.90;;;;;;5920702;23;20614;-89
2023/09/28 05:46:35;;;;;;;5.60;4.97;;;16.80;99.90;;;;;;5374348;23;20268;-87
2023/09/28 05:49:02;;;;;;;5.05;4.55;;;19.10;99.90;;;;;;4926711;29;20193;-86
2023/09/28 05:57:04;;;;;;;7.45;5.25;;;18.20;99.90;;;;;;4858058;29;20318;-86
2023/09/28 05:59:30;;;;;;;6.95;5.15;;;16.70;99.90;;;;;;4864368;29;20216;-87
2023/09/28 06:01:55;;;;;;;5.10;4.70;;;17.20;99.90;;;;;;4909265;28;20217;-87
2023/09/28 06:04:22;;;;;;;5.00;4.60;;;;;;;;;;4953099;28;20204;-87
2023/09/28 06:06:50;;;;;;;8.68;5.68;;;16.20;99.90;;;;;;4945744;29;20538;-87
2023/09/28 06:09:20;;;;;;;7.55;4.63;;;16.90;99.90;;;;;;4944506;28;20607;-87
2023/09/28 06:11:46;;;;;;;6.78;5.00;;;17.70;99.90;;;;;;4938613;29;20193;-86
2023/09/28 06:14:14;;;;;;;5.57;4.97;;;15.50;99.90;;;;;;4941070;29;20800;-88
2023/09/28 06:16:42;;;;;;;6.63;5.03;;;15.70;99.90;;;;;;4937519;29;20209;-88
2023/09/28 06:19:07;;;;;;;5.60;5.00;;;18.60;99.90;;;;;;4938305;29;20193;-88
2023/09/28 06:21:36;;;;;;;5.07;4.57;;;15.70;99.90;;;;;;4939888;29;20190;-87
2023/09/28 06:24:04;;;;;;;6.65;5.10;;;15.90;99.90;;;;;;4937113;29;20637;-89
2023/09/28 06:26:29;;;;;;;9.43;5.10;;;16.80;99.90;;;;;;4934738;29;20809;-88
2023/09/28 06:28:58;;;;;;;7.37;4.90;;;17.00;99.90;;;;;;4936434;29;20189;-88
2023/09/28 06:31:24;;;;;;;8.27;5.28;;;18.40;99.90;;;;;;4932325;29;20651;-87
2023/09/28 06:33:49;;;;;;;6.67;4.80;;;17.00;99.90;;;;;;4933600;29;20205;-87
2023/09/28 06:36:34;;;;;;;9.73;6.77;;;17.60;99.90;;;;;;4931360;29;21699;-88
2023/09/28 06:39:10;;;;;;;9.10;5.38;;;17.50;99.90;;;;;;4936883;29;20181;-88
2023/09/28 06:41:49;;;;;;;5.05;4.65;;;17.50;99.90;;;;;;4955742;28;20266;-88
2023/09/28 06:44:15;;;;;;;6.80;4.88;;;17.60;99.90;;;;;;4946687;28;20264;-89
2023/09/28 06:46:40;;;;;;;9.57;4.93;;;17.60;99.90;;;;;;4931311;29;20678;-89
2023/09/28 06:49:15;;;;;;;5.57;4.90;;;19.90;99.90;;;;;;4918104;29;20189;-88
2023/09/28 06:57:16;;;;;;;6.35;5.75;;;18.80;99.90;;;;;;5582703;23;20300;-87
2023/09/28 06:59:46;;;;;;;5.65;5.15;;;20.10;99.90;;;;;;4946487;29;20185;-88
2023/09/28 07:02:14;;;;;;;7.10;4.78;;;19.20;99.90;;;;;;4934689;29;20217;-89
2023/09/28 07:14:16;;;;;;;5.25;4.75;;;20.10;97.70;;;;;;5985450;23;20163;-88
2023/09/28 07:20:14;;;;;;;6.90;6.25;;;20.90;95.50;;;;;;4913700;29;20220;-87
2023/09/28 07:22:45;;;;;;;10.00;7.00;;;24.00;95.70;;;;;;4933834;29;20237;-88
2023/09/28 07:25:11;;;;;;;7.72;5.90;;;22.70;94.40;;;;;;4933796;29;20281;-89
2023/09/28 07:27:36;;;;;;;7.30;5.97;;;25.10;95.30;;;;;;4938124;29;20280;-87
2023/09/28 07:30:05;;;;;;;6.13;5.53;;;24.20;94.50;;;;;;4932496;29;20197;-87
2023/09/28 07:45:27;;;;;;;11.07;7.70;;;24.30;85.50;;;;;;4968095;23;20495;-88
2023/09/28 07:47:52;;;;;;;11.20;7.40;;;28.30;83.40;;;;;;4965801;28;20454;-88
2023/09/28 07:50:26;;;;;;;8.00;7.20;;;29.40;79.70;;;;;;4951768;28;20286;-88
2023/09/28 08:45:56;;;;;;;12.27;6.20;;;21.90;91.50;;;;;;4948835;29;20282;-92
2023/09/28 08:48:59;;;;;;;6.73;5.50;;;20.20;91.10;;;;;;5231736;23;20492;-90
2023/09/28 10:39:25;;;;;;;;;;;;;;;;;;;;;
2023/09/28 10:42:16;;;;;;;4.47;3.87;;;28.10;54.60;;;;;;4936522;29;20475;-85
2023/09/28 10:44:53;;;;;;;5.10;4.60;;;28.00;52.00;;;;;;4931647;29;20531;-86
2023/09/28 10:47:21;;;;;;;5.53;5.00;;;28.60;52.50;;;;;;4950601;28;20478;-85
2023/09/28 10:50:22;;;;;;;;;;;;;;;;;;;;;
2023/09/28 10:56:28;;;;;;;4.87;4.37;;;29.70;52.40;;;;;;4921257;29;20584;-87
2023/09/28 10:58:56;;;;;;;5.80;5.00;;;29.50;55.00;;;;;;4898759;29;20453;-87
2023/09/28 11:01:22;;;;;;;8.57;5.83;;;32.10;54.70;;;;;;4913072;29;20533;-86
2023/09/28 11:03:50;;;;;;;7.53;4.43;;;30.40;54.00;;;;;;4916196;29;20447;-87
2023/09/28 11:06:17;;;;;;;4.70;4.23;;;29.80;53.80;;;;;;4899584;29;20243;-88
2023/09/28 11:08:49;;;;;;;5.53;4.90;;;30.40;55.20;;;;;;4910823;29;20528;-88
2023/09/28 11:11:21;;;;;;;4.70;4.23;;;30.20;56.10;;;;;;4910528;29;20537;-88
2023/09/28 11:14:31;;;;;;;;;;;;;;;;;;;;;
2023/09/28 11:26:15;;;;;;;5.43;4.00;;;28.00;56.70;;;;;;4949287;28;20501;-88
2023/09/28 11:28:41;;;;;;;4.37;3.93;;;28.90;58.80;;;;;;4950649;29;20509;-88
2023/09/28 11:31:09;;;;;;;5.30;4.50;;;29.00;58.60;;;;;;4950583;28;20257;-87
2023/09/28 11:33:36;;;;;;;7.30;4.40;;;27.90;56.80;;;;;;4935332;29;20239;-87
2023/09/28 11:36:04;;;;;;;4.40;3.83;;;28.10;57.20;;;;;;4949386;29;20844;-90
2023/09/28 11:39:10;;;;;;;6.40;4.10;;;27.50;57.30;;;;;;4946270;29;20445;-89
2023/09/28 12:32:15;;;;;;;7.10;3.83;;;27.30;52.40;;;;;;4950216;28;20504;-88
2023/09/28 12:34:40;;;;;;;3.80;3.10;;;27.40;54.80;;;;;;4932724;29;20462;-88
2023/09/28 12:37:14;;;;;;;4.17;2.80;;;27.40;53.60;;;;;;4932223;29;20306;-85
2023/09/28 12:39:58;;;;;;;;;;;;;;;;;;;;;
2023/09/28 12:43:21;;;;;;;;;;;;;;;;;;;;;
2023/09/28 12:45:40;;;;;;;3.60;3.30;;;28.00;55.10;;;;;;4927225;29;20443;-86
2023/09/28 12:49:02;;;;;;;;;;;;;;;;;;;;;
2023/09/28 12:51:47;;;;;;;;;;;;;;;;;;;;;
2023/09/28 12:54:19;;;;;;;3.63;3.07;;;29.20;56.00;;;;;;4933664;29;20455;-86
2023/09/28 12:57:04;;;;;;;;;;;;;;;;;;;;;
2023/09/28 13:02:48;;;;;;;;;;;;;;;;;;;;;
2023/09/28 13:05:21;;;;;;;3.90;2.80;;;30.50;55.20;;;;;;4933364;29;20470;-85
2023/09/28 13:13:57;;;;;;;6.23;3.93;;;28.40;53.90;;;;;;4934710;29;20444;-88
2023/09/28 13:16:43;;;;;;;2.90;2.50;;;28.00;52.50;;;;;;4942504;29;20561;-87
2023/09/28 13:19:11;;;;;;;4.63;3.07;;;28.00;51.30;;;;;;4967711;28;20192;-86
2023/09/28 13:37:29;;;;;;;2.13;2.00;;;27.90;52.20;;;;;;5866818;23;20580;-87
2023/09/28 13:40:28;;;;;;;2.30;2.10;;;29.50;51.70;;;;;;4961756;29;20521;-85
2023/09/28 13:46:18;;;;;;;2.73;2.37;;;28.00;48.50;;;;;;4934656;29;20504;-86
2023/09/28 13:48:47;;;;;;;2.53;2.33;;;29.40;52.90;;;;;;4930492;29;20449;-86
2023/09/28 13:51:25;;;;;;;2.43;2.20;;;28.10;50.40;;;;;;4931764;29;20992;-88
2023/09/28 13:53:51;;;;;;;2.50;1.97;;;27.90;49.70;;;;;;4935161;29;20477;-89
2023/09/28 13:56:27;;;;;;;2.57;2.37;;;27.60;49.70;;;;;;4924235;28;20488;-88
2023/09/28 14:09:46;;;;;;;;;;;;;;;;;;;;;
2023/09/28 14:12:21;;;;;;;3.43;2.47;;;27.10;50.10;;;;;;4742320;29;20485;-89
2023/09/28 14:18:45;;;;;;;;;;;;;;;;;;;;;
2023/09/28 14:26:58;;;;;;;2.37;2.17;;;27.50;51.60;;;;;;5536526;23;20490;-88
2023/09/28 14:29:34;;;;;;;3.33;2.00;;;28.90;51.30;;;;;;4934700;29;20560;-88
2023/09/28 14:32:02;;;;;;;2.50;2.30;;;28.10;51.30;;;;;;4939866;29;20527;-88
2023/09/28 14:34:28;;;;;;;2.77;2.47;;;30.20;52.30;;;;;;4938327;29;20450;-89
2023/09/28 14:36:53;;;;;;;2.83;2.10;;;28.80;51.80;;;;;;4944965;23;20528;-89
2023/09/28 14:39:20;;;;;;;4.23;2.63;;;27.90;49.30;;;;;;4924855;29;20197;-89
2023/09/28 14:41:45;;;;;;;2.77;2.27;;;27.80;49.60;;;;;;4918430;29;20230;-89
2023/09/28 14:44:11;;;;;;;2.57;2.20;;;28.00;49.70;;;;;;4933122;29;20429;-89
2023/09/28 14:46:37;;;;;;;2.97;2.67;;;27.90;49.20;;;;;;4938596;29;20195;-89
2023/09/28 14:49:03;;;;;;;3.50;2.57;;;27.80;50.20;;;;;;4936569;29;20661;-89
2023/09/28 14:51:29;;;;;;;2.40;2.20;;;27.40;49.90;;;;;;4916187;29;20411;-89
2023/09/28 14:53:54;;;;;;;2.20;2.10;;;28.10;50.00;;;;;;4926319;29;20511;-90
2023/09/28 14:56:20;;;;;;;2.23;2.10;;;27.90;49.20;;;;;;4924811;29;20235;-89
2023/09/28 14:58:45;;;;;;;5.10;4.67;;;29.20;50.50;;;;;;5021253;23;20242;-91
2023/09/28 15:01:13;;;;;;;2.40;2.20;;;29.20;50.60;;;;;;5215513;23;20224;-90
2023/09/28 15:03:39;;;;;;;2.60;2.40;;;27.90;49.50;;;;;;5493461;23;20231;-91
2023/09/28 15:06:07;;;;;;;2.90;2.30;;;28.00;49.90;;;;;;5200897;23;20562;-92
2023/09/28 15:08:34;;;;;;;3.00;2.77;;;28.20;49.80;;;;;;4970342;23;20220;-92
2023/09/28 15:11:00;;;;;;;2.47;2.27;;;28.20;51.70;;;;;;4952790;28;20514;-92
2023/09/28 15:13:26;;;;;;;2.43;2.27;;;28.00;50.60;;;;;;4918036;29;20468;-92
2023/09/28 15:15:53;;;;;;;2.97;2.77;;;28.00;50.60;;;;;;4928645;29;20485;-92
2023/09/28 15:18:19;;;;;;;2.80;2.43;;;28.20;50.60;;;;;;4941860;29;20450;-90
2023/09/28 15:20:45;;;;;;;3.97;2.60;;;28.00;50.70;;;;;;4947601;29;20570;-91
2023/09/28 15:23:12;;;;;;;4.80;2.57;;;28.20;53.30;;;;;;4929827;29;20461;-91
2023/09/28 15:25:38;;;;;;;1.93;1.83;;;27.90;52.00;;;;;;4934059;29;20193;-92
2023/09/28 15:28:08;;;;;;;1.50;1.40;;;27.90;48.80;;;;;;4940857;29;20484;-91
2023/09/28 15:30:35;;;;;;;2.27;2.07;;;27.90;47.20;;;;;;4948507;29;20449;-92
2023/09/28 15:33:03;;;;;;;3.67;2.23;;;27.90;49.10;;;;;;4948812;28;20460;-92
2023/09/28 15:35:31;;;;;;;2.33;2.10;;;27.80;53.20;;;;;;5166870;23;20611;-90
2023/09/28 15:37:56;;;;;;;4.03;2.73;;;27.60;49.50;;;;;;4959362;28;20561;-90
2023/09/28 15:40:24;;;;;;;3.70;1.90;;;27.50;52.60;;;;;;4954551;28;20511;-90
2023/09/28 15:42:49;;;;;;;2.97;2.27;;;27.50;53.30;;;;;;5253868;23;20235;-90
2023/09/28 15:45:15;;;;;;;3.00;2.27;;;27.70;52.10;;;;;;4956971;28;20443;-89
2023/09/28 15:47:42;;;;;;;2.67;2.47;;;27.90;55.00;;;;;;5011949;23;20234;-89
2023/09/28 15:50:10;;;;;;;3.27;2.97;;;27.40;53.20;;;;;;4952550;29;20202;-90
2023/09/28 15:52:37;;;;;;;5.60;2.93;;;27.20;52.70;;;;;;4932735;29;20540;-90
2023/09/28 15:55:03;;;;;;;3.37;2.77;;;27.10;52.80;;;;;;4949626;29;20453;-91
2023/09/28 15:57:31;;;;;;;3.87;3.40;;;27.00;53.70;;;;;;4950313;29;20461;-90
2023/09/28 15:59:57;;;;;;;5.07;3.13;;;27.00;55.10;;;;;;4948306;29;20465;-90
2023/09/28 16:02:25;;;;;;;4.23;3.70;;;26.80;55.20;;;;;;4946616;29;20469;-91
2023/09/28 16:04:54;;;;;;;3.73;3.43;;;27.00;55.50;;;;;;4947123;29;20274;-90
2023/09/28 16:07:19;;;;;;;4.93;4.17;;;26.70;56.40;;;;;;4944038;29;20493;-90
2023/09/28 16:09:48;;;;;;;3.57;3.23;;;27.10;58.00;;;;;;5300434;23;20588;-92
2023/09/28 16:12:14;;;;;;;4.83;3.60;;;26.90;57.90;;;;;;4950191;29;20484;-92
2023/09/28 16:14:40;;;;;;;4.70;3.50;;;26.80;57.90;;;;;;4948903;29;20465;-92
2023/09/28 16:17:05;;;;;;;4.20;3.80;;;26.50;58.00;;;;;;4933075;29;20212;-92
2023/09/28 16:19:31;;;;;;;5.90;3.63;;;26.60;58.50;;;;;;4946326;29;20837;-90
2023/09/28 16:21:58;;;;;;;4.13;3.80;;;26.30;58.60;;;;;;4933491;29;20252;-92
2023/09/28 16:24:23;;;;;;;3.57;3.27;;;26.40;59.00;;;;;;4946119;29;20190;-92
2023/09/28 16:26:50;;;;;;;4.73;3.47;;;26.60;59.10;;;;;;4947177;29;20437;-92
2023/09/28 16:29:16;;;;;;;6.10;3.77;;;26.10;58.70;;;;;;4946555;29;20651;-92
2023/09/28 16:31:41;;;;;;;4.33;3.40;;;26.10;59.20;;;;;;4940214;28;20437;-93
2023/09/28 16:34:08;;;;;;;4.67;3.63;;;26.10;59.20;;;;;;4969704;28;20201;-92
2023/09/28 16:36:34;;;;;;;6.43;4.77;;;26.00;59.70;;;;;;4957590;28;20212;-92
2023/09/28 16:39:00;;;;;;;8.67;4.10;;;25.80;61.00;;;;;;5071714;23;20504;-90
2023/09/28 16:41:25;;;;;;;5.40;3.67;;;26.10;64.00;;;;;;4957398;28;20461;-90
2023/09/28 16:43:51;;;;;;;8.27;4.27;;;25.90;64.50;;;;;;4937709;29;20461;-90
2023/09/28 16:46:19;;;;;;;5.73;3.83;;;27.50;66.20;;;;;;4936419;29;20308;-90
2023/09/28 16:48:47;;;;;;;4.23;3.83;;;25.40;65.60;;;;;;4936475;28;20265;-90
2023/09/28 16:51:13;;;;;;;5.77;3.70;;;25.30;68.00;;;;;;4933921;29;20497;-91
2023/09/28 16:53:40;;;;;;;4.73;3.87;;;27.30;70.20;;;;;;4937043;29;20449;-90
2023/09/28 16:56:05;;;;;;;4.77;4.37;;;25.10;68.70;;;;;;4935737;29;20460;-90
2023/09/28 16:58:31;;;;;;;6.00;3.87;;;26.60;70.40;;;;;;4922872;29;20188;-90
2023/09/28 17:00:59;;;;;;;3.80;3.40;;;24.70;71.00;;;;;;4925004;29;20179;-90
2023/09/28 17:03:24;;;;;;;4.97;3.93;;;24.80;72.60;;;;;;4921489;29;20212;-90
2023/09/28 17:05:51;;;;;;;5.43;3.70;;;26.60;74.70;;;;;;4924926;29;20510;-90
2023/09/28 17:08:16;;;;;;;4.83;4.33;;;27.10;76.70;;;;;;4924216;29;20174;-90
2023/09/28 17:10:43;;;;;;;5.80;5.20;;;25.30;74.10;;;;;;4926482;29;20467;-90
2023/09/28 17:13:09;;;;;;;7.33;6.67;;;26.10;77.20;;;;;;4916795;29;20214;-90
2023/09/28 17:15:36;;;;;;;8.60;5.70;;;24.60;76.80;;;;;;4918465;29;20509;-91
2023/09/28 17:18:03;;;;;;;8.50;7.00;;;25.80;79.30;;;;;;4922046;29;21062;-91
2023/09/28 17:20:29;;;;;;;7.53;5.83;;;23.50;78.60;;;;;;4915246;29;20442;-91
2023/09/28 17:22:56;;;;;;;6.50;5.27;;;;;;;;;;4914984;29;20474;-91
2023/09/28 17:25:22;;;;;;;7.57;5.93;;;23.30;78.90;;;;;;4915207;29;20202;-91
2023/09/28 17:27:48;;;;;;;5.37;4.87;;;25.40;83.30;;;;;;4924340;29;20526;-91
2023/09/28 17:30:14;;;;;;;4.77;4.10;;;22.90;81.70;;;;;;4934784;28;20174;-91
2023/09/28 17:32:41;;;;;;;7.60;5.50;;;23.00;82.90;;;;;;4936160;28;20546;-90
2023/09/28 17:35:07;;;;;;;7.23;4.70;;;22.90;84.60;;;;;;4929618;28;20221;-91
2023/09/28 17:37:32;;;;;;;8.23;4.90;;;22.70;85.00;;;;;;4912139;29;20485;-91
2023/09/28 17:39:58;;;;;;;5.73;4.03;;;22.90;86.30;;;;;;4909083;29;20446;-90
2023/09/28 17:42:24;;;;;;;7.80;5.30;;;22.90;87.70;;;;;;4911513;29;20216;-91
2023/09/28 17:44:49;;;;;;;5.30;4.70;;;22.60;88.80;;;;;;4908592;29;20229;-90
2023/09/28 17:47:15;;;;;;;9.10;8.10;;;22.20;89.50;;;;;;4915974;29;20277;-91
2023/09/28 17:49:42;;;;;;;6.53;4.20;;;22.60;90.40;;;;;;4917544;29;20202;-91
2023/09/28 17:52:08;;;;;;;5.57;4.63;;;22.30;90.60;;;;;;4921200;29;20229;-91
2023/09/28 17:54:33;;;;;;;6.03;4.40;;;22.30;90.90;;;;;;4932762;28;20458;-91
2023/09/28 17:56:59;;;;;;;6.23;5.63;;;21.90;91.30;;;;;;5118694;23;20225;-90
2023/09/28 18:04:35;;;;;;;7.20;4.30;;;21.70;92.30;;;;;;5083050;23;20511;-90
2023/09/28 18:07:01;;;;;;;5.43;4.60;;;21.60;92.70;;;;;;4950121;29;20193;-90
2023/09/28 18:09:26;;;;;;;5.20;4.67;;;21.60;92.60;;;;;;4950464;29;20201;-90
2023/09/28 18:11:52;;;;;;;6.13;4.40;;;21.60;93.20;;;;;;4946628;29;20200;-90
2023/09/28 18:14:18;;;;;;;5.73;5.13;;;22.00;94.20;;;;;;4934698;28;20213;-90
2023/09/28 18:16:44;;;;;;;8.40;5.67;;;22.20;95.00;;;;;;4936071;29;20480;-90
2023/09/28 18:19:14;;;;;;;6.90;5.37;;;21.30;94.70;;;;;;4935719;29;20430;-90
2023/09/28 18:21:39;;;;;;;5.35;4.82;;;21.00;94.50;;;;;;4937541;28;20201;-90
2023/09/28 18:24:05;;;;;;;5.33;4.77;;;21.00;95.00;;;;;;4940427;28;20191;-90
2023/09/28 18:26:32;;;;;;;5.27;4.67;;;21.00;94.90;;;;;;4940495;28;20537;-90
2023/09/28 18:28:58;;;;;;;4.90;4.50;;;21.20;95.00;;;;;;4935643;28;20465;-90
2023/09/28 18:31:24;;;;;;;5.53;4.67;;;;;;;;;;4929137;29;20190;-90
2023/09/28 18:33:50;;;;;;;4.65;4.22;;;20.80;95.00;;;;;;4938181;28;20202;-90
2023/09/28 18:36:16;;;;;;;4.90;4.50;;;22.60;96.60;;;;;;4939685;28;20214;-90
2023/09/28 18:38:42;;;;;;;4.53;4.13;;;23.20;97.00;;;;;;4940416;28;20195;-90
2023/09/28 18:41:15;;;;;;;4.90;4.40;;;22.60;97.10;;;;;;4938914;28;20201;-90
2023/09/28 18:43:40;;;;;;;4.30;3.90;;;21.30;96.40;;;;;;4936463;28;20213;-90
2023/09/28 18:46:06;;;;;;;5.87;4.67;;;20.90;96.50;;;;;;4924714;29;20190;-90
2023/09/28 18:48:31;;;;;;;5.80;4.87;;;20.90;96.60;;;;;;4933953;29;20194;-90
2023/09/28 18:50:58;;;;;;;7.03;4.50;;;20.50;96.30;;;;;;5061322;23;20313;-91
2023/09/28 18:53:24;;;;;;;5.88;4.70;;;20.50;96.80;;;;;;4975473;28;20252;-90
2023/09/28 18:55:51;;;;;;;5.53;4.22;;;21.90;98.20;;;;;;4967741;29;20204;-90
2023/09/28 18:58:17;;;;;;;4.72;4.18;;;20.40;96.80;;;;;;4959577;29;20187;-90
2023/09/28 19:00:45;;;;;;;4.60;4.20;;;20.40;96.80;;;;;;4961268;28;20265;-90
2023/09/28 19:03:12;;;;;;;4.13;3.60;;;21.20;97.40;;;;;;4968476;28;20456;-90
2023/09/28 19:05:39;;;;;;;4.75;4.25;;;20.40;97.10;;;;;;4968829;29;20221;-90
2023/09/28 19:08:05;;;;;;;3.97;3.58;;;20.90;97.70;;;;;;4963208;28;20189;-90
2023/09/28 19:10:31;;;;;;;4.07;3.78;;;20.20;97.60;;;;;;4964341;29;20193;-90
2023/09/28 19:12:57;;;;;;;9.83;5.00;;;20.10;98.00;;;;;;4968571;29;20205;-90
2023/09/28 19:15:22;;;;;;;5.07;4.20;;;20.00;98.50;;;;;;4972248;28;20254;-90
2023/09/28 19:17:53;;;;;;;4.40;4.00;;;21.00;98.80;;;;;;4977733;28;20205;-91
2023/09/28 19:25:22;;;;;;;4.70;3.90;;;18.80;98.00;;;;;;4991225;28;20188;-91
2023/09/28 19:27:49;;;;;;;5.77;5.20;;;20.60;99.50;;;;;;5147959;23;20232;-90
2023/09/28 19:30:14;;;;;;;5.38;4.75;;;20.00;99.10;;;;;;4950013;28;20197;-91
2023/09/28 19:32:40;;;;;;;8.70;4.77;;;19.70;99.20;;;;;;4939719;29;20217;-91
2023/09/28 19:35:06;;;;;;;5.77;4.50;;;19.80;99.40;;;;;;4941383;29;20197;-91
2023/09/28 19:37:32;;;;;;;4.50;4.10;;;19.40;99.40;;;;;;4940097;29;20230;-92
2023/09/28 19:39:58;;;;;;;11.43;10.30;;;19.50;99.40;;;;;;4936991;29;20186;-90
2023/09/28 19:42:24;;;;;;;5.75;5.15;;;19.20;99.40;;;;;;4936079;29;20217;-90
2023/09/28 19:44:49;;;;;;;4.53;4.13;;;20.40;99.90;;;;;;4931581;29;20183;-91
2023/09/28 19:47:15;;;;;;;4.70;4.30;;;19.30;99.90;;;;;;4938323;29;20281;-90
2023/09/28 19:49:41;;;;;;;6.17;5.57;;;21.10;99.90;;;;;;4935666;29;20190;-90
2023/09/28 19:52:07;;;;;;;6.95;5.35;;;20.40;99.90;;;;;;4940832;29;20198;-91
2023/09/28 19:54:34;;;;;;;5.10;4.65;;;19.20;99.90;;;;;;5254709;23;20203;-91
2023/09/28 19:56:59;;;;;;;6.43;4.93;;;20.10;99.90;;;;;;4959034;28;20209;-91
2023/09/28 19:59:25;;;;;;;6.07;5.10;;;19.20;99.90;;;;;;4952948;28;20191;-91
2023/09/28 20:01:50;;;;;;;6.13;5.03;;;19.70;99.90;;;;;;4948150;28;20197;-91
2023/09/28 20:04:16;;;;;;;5.27;4.50;;;20.40;99.90;;;;;;4934556;29;20360;-91
2023/09/28 20:06:41;;;;;;;7.93;4.97;;;20.20;99.90;;;;;;4939485;29;20182;-91
2023/09/28 20:09:07;;;;;;;5.70;5.20;;;19.40;99.90;;;;;;4939240;29;20221;-91
2023/09/28 20:11:34;;;;;;;4.93;4.40;;;19.30;99.90;;;;;;4937701;29;20198;-91
2023/09/28 20:13:59;;;;;;;7.22;4.80;;;19.90;99.90;;;;;;4939273;29;20304;-91
2023/09/28 20:16:25;;;;;;;5.23;4.50;;;20.50;99.90;;;;;;4939794;29;20765;-91
2023/09/28 20:18:51;;;;;;;5.30;4.80;;;18.80;99.90;;;;;;4926838;29;20577;-91
2023/09/28 20:21:20;;;;;;;5.00;4.33;;;20.80;99.90;;;;;;4940832;29;20245;-91
2023/09/28 20:23:46;;;;;;;5.13;4.63;;;19.10;99.90;;;;;;4937639;29;20473;-91
2023/09/28 20:26:12;;;;;;;6.03;5.23;;;18.70;99.90;;;;;;4940062;29;20202;-91
2023/09/28 20:28:38;;;;;;;4.90;4.33;;;20.50;99.90;;;;;;4940624;29;20194;-91
2023/09/28 20:31:04;;;;;;;5.20;4.70;;;17.70;99.90;;;;;;4938642;29;20209;-91
2023/09/28 20:33:30;;;;;;;5.32;4.82;;;20.40;99.90;;;;;;4941371;29;20469;-91
2023/09/28 20:35:56;;;;;;;5.67;5.17;;;;;;;;;;4955255;23;20280;-91
2023/09/28 20:38:22;;;;;;;4.65;4.25;;;18.60;99.90;;;;;;4934289;29;20209;-90
2023/09/28 20:40:47;;;;;;;5.60;5.10;;;20.20;99.90;;;;;;4938636;29;20236;-90
2023/09/28 20:43:13;;;;;;;5.20;4.70;;;21.10;99.90;;;;;;4920288;29;20708;-90
2023/09/28 20:45:39;;;;;;;5.70;5.03;;;18.50;99.90;;;;;;4917714;29;20198;-90
2023/09/28 20:48:06;;;;;;;4.60;4.15;;;21.00;99.90;;;;;;4915697;29;20289;-90
2023/09/28 20:50:35;;;;;;;5.72;4.85;;;20.00;99.90;;;;;;4917447;29;20186;-90
2023/09/28 20:53:01;;;;;;;8.23;4.60;;;18.90;99.90;;;;;;4915606;29;20214;-90
2023/09/28 20:55:27;;;;;;;6.22;5.18;;;19.00;99.90;;;;;;4918034;29;20191;-90
2023/09/28 20:57:53;;;;;;;7.13;5.10;;;;;;;;;;4920453;29;20225;-90
2023/09/28 21:00:18;;;;;;;6.43;5.10;;;18.40;99.90;;;;;;4918473;29;20197;-90
2023/09/28 21:02:44;;;;;;;4.93;4.43;;;18.00;99.90;;;;;;4917244;29;20202;-90
2023/09/28 21:05:10;;;;;;;6.23;5.27;;;;;;;;;;4917470;29;20289;-90
2023/09/28 21:07:36;;;;;;;4.80;3.83;;;18.20;99.90;;;;;;4921404;29;20200;-90
2023/09/28 21:10:01;;;;;;;5.67;4.80;;;19.90;99.90;;;;;;4921524;29;20704;-90
2023/09/28 21:12:27;;;;;;;5.50;4.87;;;;;;;;;;4922391;29;20233;-90
2023/09/28 21:14:53;;;;;;;7.07;4.90;;;;;;;;;;4922742;29;20711;-90
2023/09/28 21:17:19;;;;;;;6.97;5.20;;;17.90;99.90;;;;;;4923282;29;20924;-91
2023/09/28 21:19:45;;;;;;;5.83;5.03;;;;;;;;;;4921930;29;20451;-91
2023/09/28 21:22:10;;;;;;;6.37;4.90;;;18.00;99.90;;;;;;4923852;29;20269;-91
2023/09/28 21:24:36;;;;;;;6.00;4.40;;;;;;;;;;4924042;29;20455;-91
2023/09/28 21:27:02;;;;;;;6.20;4.57;;;18.00;99.90;;;;;;4914222;29;20190;-91
2023/09/28 21:29:28;;;;;;;4.88;4.43;;;20.30;99.90;;;;;;4925825;29;20226;-90
2023/09/28 21:31:54;;;;;;;4.40;4.10;;;17.80;99.90;;;;;;4925064;29;20201;-91
2023/09/28 21:34:20;;;;;;;6.20;5.20;;;;;;;;;;4922294;29;20462;-91
2023/09/28 21:36:46;;;;;;;5.40;4.90;;;17.80;99.90;;;;;;4925362;29;20220;-91
2023/09/28 21:39:12;;;;;;;6.30;5.40;;;;;;;;;;4926521;29;20254;-91
2023/09/28 21:41:38;;;;;;;6.32;4.32;;;17.70;99.90;;;;;;4925877;29;20197;-92
2023/09/28 21:44:04;;;;;;;5.10;4.60;;;20.60;99.90;;;;;;4925058;29;20186;-91
2023/09/28 21:46:29;;;;;;;6.00;4.53;;;17.90;99.90;;;;;;4921758;29;20186;-91
2023/09/28 21:48:55;;;;;;;6.00;5.40;;;;;;;;;;4923014;29;20435;-91
2023/09/28 21:51:21;;;;;;;5.00;4.60;;;17.60;99.90;;;;;;4920647;29;20222;-92
2023/09/28 21:53:50;;;;;;;6.20;5.00;;;19.80;99.90;;;;;;4925016;29;21019;-91
2023/09/28 21:56:17;;;;;;;7.20;4.90;;;17.90;99.90;;;;;;4927371;29;20210;-91
2023/09/28 21:58:43;;;;;;;4.80;4.40;;;19.60;99.90;;;;;;4926511;29;20187;-89
2023/09/28 22:01:09;;;;;;;5.70;4.70;;;19.20;99.90;;;;;;4917925;29;20194;-90
2023/09/28 22:03:34;;;;;;;6.23;4.73;;;17.70;99.90;;;;;;4925660;29;20465;-89
2023/09/28 22:06:00;;;;;;;5.07;4.57;;;;;;;;;;4926338;29;20681;-90
2023/09/28 22:08:26;;;;;;;5.05;4.55;;;17.40;99.90;;;;;;4926903;29;20222;-90
2023/09/28 22:10:52;;;;;;;5.63;5.10;;;;;;;;;;4929079;28;20187;-90
2023/09/28 22:13:19;;;;;;;5.45;4.68;;;17.40;99.90;;;;;;4934990;28;20237;-90
2023/09/28 22:15:45;;;;;;;4.85;4.13;;;19.10;99.90;;;;;;4929193;29;20343;-91
2023/09/28 22:18:14;;;;;;;5.10;4.60;;;;;;;;;;4924296;29;20211;-91
2023/09/28 22:20:40;;;;;;;7.35;4.40;;;17.50;99.90;;;;;;4927722;29;20560;-90
2023/09/28 22:23:06;;;;;;;5.03;4.43;;;18.10;99.90;;;;;;4926612;29;20202;-90
2023/09/28 22:25:33;;;;;;;6.75;5.03;;;18.40;99.90;;;;;;4927481;29;20640;-90
2023/09/28 22:27:59;;;;;;;5.00;4.20;;;16.60;99.90;;;;;;4928678;29;20262;-90
2023/09/28 22:30:25;;;;;;;5.40;4.90;;;20.20;99.90;;;;;;4932711;29;20257;-91
2023/09/28 22:32:51;;;;;;;6.53;4.63;;;;;;;;;;4929979;29;20194;-91
2023/09/28 22:35:16;;;;;;;4.27;3.87;;;17.50;99.90;;;;;;4930779;29;20203;-91
2023/09/28 22:37:42;;;;;;;5.17;4.43;;;;;;;;;;4930189;29;20481;-91
2023/09/28 22:40:10;;;;;;;4.50;4.10;;;17.50;99.90;;;;;;4929039;29;20186;-91
2023/09/28 22:42:35;;;;;;;4.82;4.40;;;17.50;99.90;;;;;;4907931;29;20215;-91
2023/09/28 22:45:01;;;;;;;5.07;4.47;;;19.50;99.90;;;;;;4926416;29;20210;-89
2023/09/28 22:47:28;;;;;;;4.57;4.03;;;20.10;99.90;;;;;;4933393;29;20470;-89
2023/09/28 22:49:54;;;;;;;5.85;4.25;;;;;;;;;;4932282;29;20826;-89
2023/09/28 22:52:20;;;;;;;5.00;4.25;;;17.30;99.90;;;;;;4930604;28;20229;-89
2023/09/28 22:54:45;;;;;;;10.40;5.43;;;19.60;99.90;;;;;;4938014;28;20191;-90
2023/09/28 22:57:12;;;;;;;5.73;4.10;;;;;;;;;;4931061;28;20513;-90
2023/09/28 22:59:38;;;;;;;6.50;4.82;;;17.50;99.90;;;;;;4922683;29;20474;-90
2023/09/28 23:02:04;;;;;;;4.00;3.70;;;18.70;99.90;;;;;;4925078;29;20273;-89
2023/09/28 23:04:30;;;;;;;6.50;3.80;;;18.30;99.90;;;;;;4925182;29;20231;-90
2023/09/28 23:06:55;;;;;;;5.95;4.20;;;17.70;99.90;;;;;;4926756;29;20267;-90
2023/09/28 23:09:21;;;;;;;5.83;3.83;;;;;;;;;;4923462;29;20192;-90
2023/09/28 23:11:48;;;;;;;5.20;3.70;;;;;;;;;;4925221;29;20191;-90
2023/09/28 23:14:13;;;;;;;4.47;3.97;;;17.30;99.90;;;;;;4924459;29;20466;-89
2023/09/28 23:16:40;;;;;;;7.10;4.40;;;;;;;;;;4925300;29;20221;-90
2023/09/28 23:19:06;;;;;;;4.43;4.03;;;17.10;99.90;;;;;;4922391;29;20632;-89
2023/09/28 23:21:32;;;;;;;4.97;3.70;;;18.50;99.90;;;;;;4922410;29;20186;-89
2023/09/28 23:23:58;;;;;;;5.63;4.17;;;;;;;;;;4923881;29;20202;-89
2023/09/28 23:26:26;;;;;;;4.22;3.83;;;17.20;99.90;;;;;;4924319;29;20449;-91
2023/09/28 23:28:53;;;;;;;4.22;3.83;;;19.00;99.90;;;;;;4925424;29;20193;-90
2023/09/28 23:31:19;;;;;;;4.95;3.83;;;17.30;99.90;;;;;;4922096;29;20198;-92
2023/09/28 23:33:44;;;;;;;4.37;4.07;;;17.30;99.90;;;;;;4926158;29;20528;-91
2023/09/28 23:36:11;;;;;;;4.43;4.00;;;;;;;;;;4924933;29;20529;-91
2023/09/28 23:38:37;;;;;;;5.32;3.40;;;17.30;99.90;;;;;;4926536;29;20198;-91
2023/09/28 23:41:06;;;;;;;3.92;3.60;;;;;;;;;;4922492;29;20620;-90
2023/09/28 23:43:33;;;;;;;4.55;4.13;;;17.10;99.90;;;;;;4923620;29;20696;-89
2023/09/28 23:46:01;;;;;;;5.05;4.20;;;18.00;99.90;;;;;;4934707;29;20466;-89
2023/09/28 23:48:27;;;;;;;4.70;3.83;;;19.10;99.90;;;;;;4927072;29;20186;-91
2023/09/28 23:50:53;;;;;;;4.85;4.10;;;19.40;99.90;;;;;;4921621;29;20182;-89
2023/09/28 23:53:18;;;;;;;4.50;3.80;;;18.50;99.90;;;;;;4920852;29;20669;-91
2023/09/28 23:55:44;;;;;;;6.33;3.70;;;;;;;;;;4924613;29;20182;-91
2023/09/28 23:58:10;;;;;;;4.33;3.97;;;16.90;99.90;;;;;;4925269;29;20221;-90
